Time;durP1;ratioP1;P1;durP2;ratioP2;P2;SDS_P1;SDS_P2;PMS_P1;PMS_P2;Temp;Humidity;BMP_temperature;BMP_pressure;BME280_temperature;BME280_humidity;BME280_pressure;Samples;Min_cycle;Max_cycle;Signal;HPM_P1;HPM_P2
2022/07/31 00:02:02;;;;;;;20.80;16.63;;;;;;;19.49;82.12;101779.72;5091976;28;20289;-70
2022/07/31 00:04:27;;;;;;;22.67;17.13;;;;;;;19.47;81.80;101779.72;5092099;28;20207;-70
2022/07/31 00:06:53;;;;;;;22.00;16.43;;;;;;;19.45;81.20;101781.47;5073707;28;20212;-70
2022/07/31 00:09:19;;;;;;;20.87;16.47;;;;;;;19.47;81.08;101778.84;5091948;28;20184;-71
2022/07/31 00:11:44;;;;;;;18.67;15.47;;;;;;;19.41;81.48;101779.75;5091956;28;20289;-71
2022/07/31 00:14:11;;;;;;;20.83;15.50;;;;;;;19.37;81.47;101778.03;5091813;28;20647;-70
2022/07/31 00:16:36;;;;;;;18.73;14.57;;;;;;;19.39;81.09;101791.88;5091416;28;20658;-71
2022/07/31 00:19:02;;;;;;;21.20;14.77;;;;;;;19.35;81.52;101787.53;5091716;28;20191;-71
2022/07/31 00:21:27;;;;;;;16.90;14.50;;;;;;;19.34;81.06;101783.22;5091687;28;20208;-69
2022/07/31 00:23:53;;;;;;;18.30;14.30;;;;;;;19.29;81.58;101787.56;5073522;28;20222;-70
2022/07/31 00:26:19;;;;;;;19.20;13.83;;;;;;;19.28;81.97;101785.81;5073289;28;20196;-71
2022/07/31 00:28:46;;;;;;;19.33;14.07;;;;;;;19.25;82.02;101782.38;5091628;28;20300;-71
2022/07/31 00:31:12;;;;;;;21.23;13.70;;;;;;;19.22;81.58;101782.34;5073703;28;20212;-70
2022/07/31 00:33:37;;;;;;;18.10;13.70;;;;;;;19.19;81.43;101782.31;5092134;28;20188;-71
2022/07/31 00:36:03;;;;;;;14.20;11.33;;;;;;;19.13;81.26;101780.63;5073321;28;20220;-70
2022/07/31 00:38:28;;;;;;;15.37;12.40;;;;;;;19.13;81.21;101777.16;5091464;28;20183;-70
2022/07/31 00:40:54;;;;;;;16.40;11.77;;;;;;;19.08;81.53;101777.16;5090193;28;20200;-71
2022/07/31 00:43:20;;;;;;;18.90;12.60;;;;;;;19.06;81.81;101772.81;5091518;28;20184;-71
2022/07/31 00:45:46;;;;;;;14.03;12.73;;;;;;;19.06;82.18;101771.09;5090010;28;20224;-71
2022/07/31 00:48:12;;;;;;;19.30;13.87;;;;;;;19.03;82.31;101773.66;5072717;28;20706;-71
2022/07/31 00:50:37;;;;;;;15.17;13.47;;;;;;;18.98;82.31;101778.00;5080671;28;20220;-70
2022/07/31 00:53:04;;;;;;;16.67;12.37;;;;;;;18.98;82.38;101765.00;5091369;28;20187;-70
2022/07/31 00:55:30;;;;;;;14.13;12.00;;;;;;;18.94;82.14;101772.81;5102567;28;20562;-70
2022/07/31 00:57:56;;;;;;;15.13;12.37;;;;;;;18.93;82.00;101768.50;5072421;28;20650;-70
2022/07/31 01:00:22;;;;;;;19.33;13.97;;;;;;;18.91;81.79;101776.28;5090863;28;20208;-70
2022/07/31 01:02:48;;;;;;;16.30;12.20;;;;;;;18.88;82.14;101772.81;5073016;28;20188;-70
2022/07/31 01:05:17;;;;;;;17.33;12.17;;;;;;;18.87;82.05;101771.06;5072825;28;20681;-70
2022/07/31 01:07:44;;;;;;;15.53;12.60;;;;;;;18.83;82.33;101769.38;5090734;28;20212;-71
2022/07/31 01:10:15;;;;;;;13.87;12.07;;;;;;;18.80;82.29;101762.41;5073044;28;20188;-70
2022/07/31 01:12:50;;;;;;;16.37;12.20;;;;;;;18.73;82.35;101762.41;5073140;28;20184;-71
2022/07/31 01:15:17;;;;;;;18.17;12.83;;;;;;;18.76;82.35;101759.81;5072750;28;20276;-70
2022/07/31 01:17:44;;;;;;;18.50;12.30;;;;;;;18.72;82.26;101758.09;5072256;28;20256;-71
2022/07/31 01:20:10;;;;;;;17.20;13.07;;;;;;;18.70;82.62;101762.44;5090530;28;20271;-69
2022/07/31 01:22:39;;;;;;;15.23;13.63;;;;;;;18.67;82.99;101763.28;5073095;28;20235;-71
2022/07/31 01:25:07;;;;;;;14.83;13.13;;;;;;;18.64;83.28;101763.28;5072612;28;20180;-70
2022/07/31 01:28:01;;;;;;;20.77;15.20;;;;;;;18.62;83.29;101758.94;5072603;28;20208;-70
2022/07/31 01:30:34;;;;;;;17.77;15.00;;;;;;;18.58;83.51;101765.00;5072634;28;20204;-70
2022/07/31 01:33:07;;;;;;;22.47;16.67;;;;;;;18.55;83.65;101768.44;5072485;28;20241;-70
2022/07/31 01:35:42;;;;;;;21.73;17.00;;;;;;;18.53;84.20;101774.50;5072586;28;20176;-70
2022/07/31 01:38:15;;;;;;;22.27;17.90;;;;;;;18.54;84.11;101768.44;5072435;28;20175;-70
2022/07/31 01:40:45;;;;;;;23.47;17.97;;;;;;;18.51;84.48;101765.88;5071698;28;20832;-70
2022/07/31 01:43:20;;;;;;;21.97;17.83;;;;;;;18.51;84.68;101771.91;5072002;28;20188;-71
2022/07/31 01:45:50;;;;;;;21.80;18.43;;;;;;;18.45;85.07;101766.72;5071860;28;20234;-70
2022/07/31 01:48:17;;;;;;;26.23;19.43;;;;;;;18.42;85.41;101760.66;5085545;28;20213;-71
2022/07/31 01:50:46;;;;;;;23.07;19.30;;;;;;;18.41;85.89;101771.88;5059879;28;20200;-69
2022/07/31 01:53:17;;;;;;;22.80;19.23;;;;;;;18.38;85.92;101769.28;5072445;28;20718;-70
2022/07/31 01:55:44;;;;;;;24.53;18.93;;;;;;;18.36;85.96;101765.81;5072521;28;20348;-70
2022/07/31 01:58:12;;;;;;;21.10;18.90;;;;;;;18.33;86.14;101769.25;5071969;28;20180;-71
2022/07/31 02:00:39;;;;;;;23.13;19.40;;;;;;;18.34;86.21;101762.34;5071440;28;20250;-70
2022/07/31 02:03:08;;;;;;;21.90;19.20;;;;;;;18.30;86.27;101771.84;5071652;28;20184;-71
2022/07/31 02:05:35;;;;;;;21.77;19.50;;;;;;;18.24;86.37;101764.00;5072075;28;20596;-70
2022/07/31 02:08:03;;;;;;;24.53;19.57;;;;;;;18.23;86.57;101764.88;5071679;28;20246;-71
2022/07/31 02:10:30;;;;;;;27.97;20.77;;;;;;;18.19;87.02;101759.69;5071911;28;20623;-71
2022/07/31 02:12:58;;;;;;;26.40;20.60;;;;;;;18.18;87.36;101764.00;5055293;28;20185;-70
2022/07/31 02:15:25;;;;;;;23.20;20.53;;;;;;;18.18;87.34;101769.19;5071634;28;20176;-71
2022/07/31 02:17:53;;;;;;;24.30;19.40;;;;;;;18.19;87.33;101770.91;5066356;28;20466;-71
2022/07/31 02:20:22;;;;;;;30.87;22.20;;;;;;;18.19;87.56;101768.31;5090117;28;20259;-70
2022/07/31 02:22:55;;;;;;;27.00;23.20;;;;;;;18.18;87.86;101770.91;5071318;28;20184;-71
2022/07/31 02:25:21;;;;;;;28.30;22.67;;;;;;;18.15;88.00;101763.13;5071680;28;20263;-71
2022/07/31 02:27:48;;;;;;;33.07;23.67;;;;;;;18.13;88.37;101770.03;5071134;28;20635;-71
2022/07/31 02:30:15;;;;;;;29.37;23.90;;;;;;;18.08;88.48;101759.66;5071207;28;20212;-70
2022/07/31 02:32:46;;;;;;;27.27;23.90;;;;;;;18.10;88.04;101765.69;5089771;28;20183;-71
2022/07/31 02:35:15;;;;;;;29.93;24.47;;;;;;;18.09;88.14;101765.69;5071202;28;20287;-71
2022/07/31 02:37:43;;;;;;;34.37;25.77;;;;;;;18.03;88.27;101755.28;5071389;28;20188;-71
2022/07/31 02:40:12;;;;;;;34.10;24.67;;;;;;;18.03;88.40;101757.88;5071199;28;20624;-70
2022/07/31 02:42:39;;;;;;;28.80;24.37;;;;;;;18.01;88.25;101763.06;5071467;28;20191;-70
2022/07/31 02:45:07;;;;;;;32.03;24.83;;;;;;;17.98;88.39;101763.06;5071369;28;20189;-70
2022/07/31 02:47:35;;;;;;;30.83;25.20;;;;;;;18.02;88.21;101758.75;5071095;28;20591;-70
2022/07/31 02:50:03;;;;;;;33.07;24.70;;;;;;;17.99;88.12;101769.09;5070495;28;20183;-70
2022/07/31 02:52:29;;;;;;;30.90;25.70;;;;;;;17.95;88.41;101757.00;5071345;28;20605;-70
2022/07/31 02:54:57;;;;;;;32.63;26.47;;;;;;;17.91;88.62;101756.13;5071441;28;20187;-70
2022/07/31 02:57:24;;;;;;;30.77;25.23;;;;;;;17.86;88.42;101752.63;5071263;28;20173;-71
2022/07/31 02:59:50;;;;;;;29.60;26.17;;;;;;;17.87;88.58;101748.34;5071286;28;20180;-71
2022/07/31 03:02:15;;;;;;;31.07;25.50;;;;;;;17.82;88.66;101750.88;5071514;28;20211;-71
2022/07/31 03:04:43;;;;;;;32.00;26.07;;;;;;;17.81;88.69;101748.28;5071142;28;20226;-71
2022/07/31 03:07:08;;;;;;;30.67;24.13;;;;;;;17.76;88.23;101735.31;5089170;28;20807;-71
2022/07/31 03:09:35;;;;;;;30.90;25.17;;;;;;;17.70;88.46;101737.03;5071275;28;20188;-70
2022/07/31 03:12:24;;;;;;;33.77;25.90;;;;;;;17.71;88.53;101733.56;5080496;28;20196;-70
2022/07/31 03:14:52;;;;;;;33.43;25.93;;;;;;;17.67;87.97;101740.47;5054448;28;20244;-71
2022/07/31 03:17:19;;;;;;;30.73;24.63;;;;;;;17.66;88.02;101737.84;5055655;28;20239;-70
2022/07/31 03:19:46;;;;;;;28.97;25.73;;;;;;;17.63;87.53;101732.66;5051025;28;20267;-69
2022/07/31 03:22:12;;;;;;;30.13;25.77;;;;;;;17.61;87.78;101736.97;5069002;28;20208;-71
2022/07/31 03:24:38;;;;;;;32.20;26.07;;;;;;;17.62;87.64;101742.16;5050954;28;20185;-71
2022/07/31 03:27:03;;;;;;;33.97;26.63;;;;;;;17.57;88.12;101738.69;5073093;28;20208;-70
2022/07/31 03:29:39;;;;;;;31.07;25.03;;;;;;;17.57;88.06;101741.28;5088671;28;20180;-71
2022/07/31 03:32:05;;;;;;;30.37;24.30;;;;;;;17.49;88.27;101736.91;5070932;28;20238;-71
2022/07/31 03:34:31;;;;;;;24.43;21.67;;;;;;;17.43;88.46;101737.75;5070695;28;20271;-70
2022/07/31 03:36:57;;;;;;;27.93;21.47;;;;;;;17.43;88.73;101731.69;5070572;28;20318;-70
2022/07/31 03:39:24;;;;;;;28.47;22.03;;;;;;;17.36;89.45;101737.66;5070982;28;20565;-71
2022/07/31 03:41:51;;;;;;;27.70;23.03;;;;;;;17.38;88.85;101729.06;5070498;28;20211;-71
2022/07/31 03:44:18;;;;;;;28.77;21.83;;;;;;;17.34;89.71;101740.25;5070728;28;20680;-71
2022/07/31 03:46:44;;;;;;;28.27;22.73;;;;;;;17.36;89.03;101738.53;5070414;28;20200;-70
2022/07/31 03:49:10;;;;;;;33.23;24.67;;;;;;;17.35;89.85;101730.72;5070737;28;20211;-70
2022/07/31 03:51:35;;;;;;;30.60;24.00;;;;;;;17.31;89.81;101731.59;5070648;28;20299;-71
2022/07/31 03:54:01;;;;;;;30.33;24.53;;;;;;;17.35;89.64;101736.78;5070677;28;20200;-69
2022/07/31 03:56:41;;;;;;;35.07;24.53;;;;;;;17.36;90.41;101728.16;5088362;28;20701;-71
2022/07/31 03:59:07;;;;;;;29.43;23.37;;;;;;;17.35;89.54;101729.03;5070343;28;20184;-70
2022/07/31 04:01:33;;;;;;;34.10;26.40;;;;;;;17.28;90.23;101726.38;5070706;28;20210;-71
2022/07/31 04:04:00;;;;;;;32.50;24.20;;;;;;;17.34;89.89;101724.72;5073438;28;20176;-70
2022/07/31 04:06:48;;;;;;;30.50;25.03;;;;;;;17.33;90.59;101727.28;5073846;28;20179;-70
2022/07/31 04:09:13;;;;;;;29.90;25.67;;;;;;;17.40;90.49;101724.75;5074038;28;20192;-71
2022/07/31 04:11:39;;;;;;;30.43;25.10;;;;;;;17.37;90.69;101729.88;5073690;28;20694;-71
2022/07/31 04:14:04;;;;;;;33.20;25.40;;;;;;;17.41;90.47;101733.41;5073999;28;20176;-70
2022/07/31 04:16:30;;;;;;;27.93;22.87;;;;;;;17.41;90.97;101734.25;5072138;28;20235;-70
2022/07/31 04:18:56;;;;;;;28.33;21.93;;;;;;;17.39;91.08;101741.16;5074347;28;20279;-69
2022/07/31 04:21:21;;;;;;;25.80;20.23;;;;;;;17.37;91.87;101740.25;5075149;28;20201;-71
2022/07/31 04:23:47;;;;;;;21.90;19.20;;;;;;;17.42;91.38;101743.78;5074285;28;20180;-71
2022/07/31 04:26:12;;;;;;;21.47;17.17;;;;;;;17.45;91.28;101733.44;5091863;28;20238;-69
2022/07/31 04:28:41;;;;;;;20.80;17.97;;;;;;;17.50;91.16;101738.66;5057614;28;20299;-71
2022/07/31 04:31:06;;;;;;;21.57;18.00;;;;;;;17.50;91.19;101746.41;5073844;28;20310;-70
2022/07/31 04:33:35;;;;;;;19.27;16.77;;;;;;;17.52;91.25;101742.97;5057701;28;20177;-71
2022/07/31 04:36:01;;;;;;;18.53;16.53;;;;;;;17.61;90.73;101737.84;5073727;28;20185;-70
2022/07/31 04:38:26;;;;;;;20.83;16.70;;;;;;;17.65;90.40;101733.53;5091575;28;20184;-71
2022/07/31 04:40:52;;;;;;;18.23;15.53;;;;;;;17.67;90.55;101743.06;5073677;28;20265;-71
2022/07/31 04:43:18;;;;;;;18.50;14.17;;;;;;;17.68;90.53;101747.38;5073392;28;20192;-71
2022/07/31 04:45:43;;;;;;;16.50;14.73;;;;;;;17.72;90.32;101743.06;5056765;28;20658;-69
2022/07/31 04:48:10;;;;;;;21.33;14.87;;;;;;;17.72;90.48;101737.88;5073180;28;20238;-70
2022/07/31 04:50:36;;;;;;;20.23;14.73;;;;;;;17.72;89.96;101749.13;5073137;28;20216;-71
2022/07/31 04:53:02;;;;;;;18.40;14.50;;;;;;;17.76;90.14;101750.00;5073052;28;20240;-70
2022/07/31 04:55:32;;;;;;;17.07;14.23;;;;;;;17.84;89.79;101745.72;5073415;28;20180;-70
2022/07/31 04:57:58;;;;;;;21.27;15.40;;;;;;;17.86;89.79;101746.56;5055988;28;20173;-70
2022/07/31 05:00:25;;;;;;;19.70;14.97;;;;;;;17.91;89.56;101750.09;5073159;28;20302;-71
2022/07/31 05:02:51;;;;;;;19.37;15.13;;;;;;;17.96;89.39;101753.56;5072595;28;20223;-70
2022/07/31 05:05:17;;;;;;;15.40;13.20;;;;;;;18.00;88.60;101748.38;5065884;28;20271;-71
2022/07/31 05:07:43;;;;;;;16.30;14.60;;;;;;;18.05;88.69;101751.00;5106832;28;20244;-70
2022/07/31 05:13:00;;;;;;;18.80;14.17;;;;;;;18.05;88.72;101754.44;5073106;28;20242;-70
2022/07/31 05:15:26;;;;;;;19.67;14.37;;;;;;;18.08;88.48;101757.06;5071842;28;20606;-69
2022/07/31 05:17:52;;;;;;;17.57;14.50;;;;;;;18.13;87.97;101757.94;5072524;28;20206;-70
2022/07/31 05:20:37;;;;;;;18.13;14.27;;;;;;;18.22;87.79;101759.69;5091116;28;20284;-71
2022/07/31 05:23:18;;;;;;;16.33;13.87;;;;;;;18.27;87.73;101761.44;5072716;28;20188;-70
2022/07/31 05:26:07;;;;;;;15.63;13.57;;;;;;;18.32;87.11;101759.72;5072654;28;20263;-70
2022/07/31 05:28:33;;;;;;;15.70;14.00;;;;;;;18.35;86.82;101752.00;5072463;28;20216;-71
2022/07/31 05:30:59;;;;;;;15.83;14.13;;;;;;;18.42;87.00;101752.88;5072878;28;20212;-69
2022/07/31 05:33:25;;;;;;;17.67;14.27;;;;;;;18.50;86.78;101743.34;5072984;28;20546;-71
2022/07/31 05:35:51;;;;;;;16.13;13.50;;;;;;;18.58;86.46;101737.34;5073006;28;20199;-69
2022/07/31 05:38:16;;;;;;;15.10;13.50;;;;;;;18.63;86.06;101739.91;5072579;28;20180;-70
2022/07/31 05:41:02;;;;;;;16.63;14.37;;;;;;;18.66;85.99;101740.78;5090243;28;20277;-71
2022/07/31 05:43:37;;;;;;;17.23;14.90;;;;;;;18.47;86.62;101745.97;5072477;28;20184;-69
2022/07/31 05:46:13;;;;;;;17.47;12.20;;;;;;;18.56;86.62;101735.59;5072421;28;20184;-71
2022/07/31 05:48:40;;;;;;;17.23;14.07;;;;;;;18.50;86.34;101745.94;5072132;28;20246;-70
2022/07/31 05:51:09;;;;;;;19.90;14.90;;;;;;;18.51;86.37;101735.56;5072135;28;20208;-70
2022/07/31 05:53:35;;;;;;;19.00;14.63;;;;;;;18.49;86.28;101736.44;5072109;28;20195;-70
2022/07/31 05:56:19;;;;;;;17.43;14.10;;;;;;;18.64;85.71;101736.44;5090410;28;20677;-71
2022/07/31 05:58:48;;;;;;;20.77;14.70;;;;;;;18.71;85.39;101738.19;5089740;28;20246;-71
2022/07/31 06:01:13;;;;;;;18.20;14.87;;;;;;;18.79;84.75;101731.28;5088710;28;20682;-71
2022/07/31 06:03:39;;;;;;;14.80;13.10;;;;;;;18.87;84.48;101729.53;5072083;28;20823;-70
2022/07/31 06:06:12;;;;;;;16.33;13.93;;;;;;;18.86;84.39;101726.09;5072201;28;20184;-71
2022/07/31 06:08:37;;;;;;;19.10;14.00;;;;;;;18.91;84.41;101726.06;5071849;28;20747;-71
2022/07/31 06:11:03;;;;;;;15.37;13.77;;;;;;;18.92;84.61;101728.69;5071919;28;20197;-71
2022/07/31 06:13:29;;;;;;;18.63;15.10;;;;;;;18.80;84.50;101722.63;5071846;28;20543;-70
2022/07/31 06:15:59;;;;;;;17.77;14.50;;;;;;;18.87;84.61;101730.41;5071692;28;20188;-71
2022/07/31 06:18:25;;;;;;;16.70;14.53;;;;;;;18.92;84.26;101728.69;5071622;28;20694;-70
2022/07/31 06:20:50;;;;;;;17.90;15.27;;;;;;;18.93;84.22;101732.16;5089993;28;20208;-69
2022/07/31 06:23:16;;;;;;;18.03;14.83;;;;;;;19.05;83.80;101735.59;5071754;28;20667;-70
2022/07/31 06:25:42;;;;;;;17.53;14.80;;;;;;;18.95;84.23;101735.59;5054591;28;20196;-70
2022/07/31 06:28:07;;;;;;;21.63;15.70;;;;;;;18.88;84.25;101739.94;5071389;28;20671;-71
2022/07/31 06:30:33;;;;;;;21.97;15.93;;;;;;;18.85;84.67;101750.34;5071494;28;20231;-70
2022/07/31 06:32:58;;;;;;;18.27;14.33;;;;;;;18.97;84.16;101736.47;5089817;28;20181;-71
2022/07/31 06:35:27;;;;;;;18.03;16.00;;;;;;;19.02;83.76;101734.75;5071647;28;20223;-70
2022/07/31 06:38:12;;;;;;;19.37;17.27;;;;;;;18.98;83.31;101730.41;5071803;28;20197;-71
2022/07/31 06:40:58;;;;;;;16.93;13.97;;;;;;;19.12;82.52;101734.72;5038383;28;20290;-70
2022/07/31 06:43:33;;;;;;;15.20;13.70;;;;;;;19.18;82.66;101720.88;5071938;28;20195;-71
2022/07/31 06:46:17;;;;;;;17.33;13.73;;;;;;;19.27;82.12;101731.28;5089778;28;20227;-71
2022/07/31 06:49:01;;;;;;;16.50;13.50;;;;;;;19.19;81.96;101736.44;5089652;28;20273;-71
2022/07/31 06:51:27;;;;;;;18.10;13.87;;;;;;;19.18;82.19;101744.25;5071302;28;20200;-71
2022/07/31 06:53:53;;;;;;;18.27;15.50;;;;;;;19.08;82.75;101742.53;5089464;28;20184;-71
2022/07/31 06:56:18;;;;;;;19.27;15.27;;;;;;;19.11;82.43;101742.53;5071254;28;20188;-70
2022/07/31 06:58:44;;;;;;;20.57;15.77;;;;;;;19.19;82.33;101735.56;5071411;28;20569;-70
2022/07/31 07:01:10;;;;;;;22.17;15.37;;;;;;;19.31;81.78;101726.09;5071166;28;20223;-71
2022/07/31 07:03:35;;;;;;;18.00;15.73;;;;;;;19.15;82.57;101728.66;5071195;28;20185;-70
2022/07/31 07:06:02;;;;;;;16.57;14.43;;;;;;;19.24;82.06;101729.53;5069712;28;20675;-70
2022/07/31 07:08:28;;;;;;;22.60;14.83;;;;;;;19.21;82.52;101729.50;5070770;28;20683;-71
2022/07/31 07:10:54;;;;;;;18.07;14.57;;;;;;;19.14;82.86;101735.59;5071157;28;20425;-71
2022/07/31 07:13:30;;;;;;;18.10;15.17;;;;;;;19.22;81.88;101726.09;5071230;28;20271;-70
2022/07/31 07:15:55;;;;;;;19.87;14.67;;;;;;;19.25;81.67;101730.44;5089121;28;20284;-71
2022/07/31 07:18:24;;;;;;;17.63;14.87;;;;;;;19.31;81.56;101723.50;5070871;28;20216;-70
2022/07/31 07:20:52;;;;;;;17.47;14.23;;;;;;;19.48;80.53;101728.66;5070987;28;20216;-71
2022/07/31 07:23:19;;;;;;;19.23;15.43;;;;;;;19.46;80.73;101725.16;5071187;28;20191;-70
2022/07/31 07:26:07;;;;;;;14.83;13.10;;;;;;;19.65;79.67;101717.31;5071190;28;20180;-70
2022/07/31 07:28:33;;;;;;;16.87;14.10;;;;;;;19.68;79.34;101719.03;5088961;28;20201;-71
2022/07/31 07:31:01;;;;;;;18.17;14.10;;;;;;;19.70;79.44;101709.50;5054554;28;20208;-69
2022/07/31 07:33:27;;;;;;;17.33;12.37;;;;;;;19.81;79.14;101710.31;5071005;28;20192;-71
2022/07/31 07:35:53;;;;;;;20.67;12.73;;;;;;;19.84;78.28;101711.16;5070928;28;20188;-70
2022/07/31 07:38:19;;;;;;;13.73;10.90;;;;;;;19.95;77.66;101711.13;5073076;28;20180;-71
2022/07/31 07:40:44;;;;;;;13.10;10.23;;;;;;;20.04;76.68;101698.91;5058328;28;20208;-71
2022/07/31 07:43:10;;;;;;;12.57;10.93;;;;;;;20.10;76.53;101700.66;5075261;28;20668;-71
2022/07/31 07:45:38;;;;;;;13.80;10.00;;;;;;;20.28;74.46;101697.97;5075000;28;20185;-70
2022/07/31 07:48:05;;;;;;;13.27;9.67;;;;;;;20.33;74.81;101698.78;5093036;28;20219;-71
2022/07/31 07:50:35;;;;;;;11.77;9.43;;;;;;;20.42;74.06;101699.59;5074836;28;20204;-70
2022/07/31 07:53:24;;;;;;;10.90;8.60;;;;;;;20.41;73.36;101700.44;5084563;28;20200;-69
2022/07/31 07:56:08;;;;;;;12.87;8.27;;;;;;;20.64;71.31;101692.50;5092994;28;20199;-70
2022/07/31 07:58:39;;;;;;;13.80;9.77;;;;;;;20.89;72.35;101694.00;5092997;28;20270;-71
2022/07/31 08:01:37;;;;;;;9.40;6.50;;;;;;;20.98;68.55;101691.34;5079489;28;20247;-71
2022/07/31 08:04:13;;;;;;;12.33;8.30;;;;;;;20.94;69.19;101687.03;5074672;28;20659;-71
2022/07/31 08:06:39;;;;;;;9.90;7.87;;;;;;;21.00;68.00;101690.44;5074134;28;20192;-71
2022/07/31 08:09:04;;;;;;;12.30;6.57;;;;;;;20.90;67.33;101695.75;5074660;28;20287;-71
2022/07/31 08:11:49;;;;;;;10.83;5.87;;;;;;;20.86;64.59;101691.44;5093279;28;20218;-69
2022/07/31 08:14:27;;;;;;;10.37;5.57;;;;;;;20.97;65.37;101692.22;5074813;28;20267;-71
2022/07/31 08:17:15;;;;;;;10.53;7.30;;;;;;;20.88;67.61;101692.28;5044920;28;20212;-71
2022/07/31 08:19:41;;;;;;;8.97;7.43;;;;;;;21.06;66.99;101693.00;5074215;28;20194;-71
2022/07/31 08:22:07;;;;;;;8.83;5.60;;;;;;;21.34;66.90;101694.47;5074164;28;20631;-70
2022/07/31 08:24:33;;;;;;;10.73;6.30;;;;;;;21.35;66.59;101695.31;5074084;28;20532;-71
2022/07/31 08:29:44;;;;;;;8.90;5.97;;;;;;;21.10;65.33;101701.66;5093617;28;20172;-72
2022/07/31 08:32:14;;;;;;;8.13;5.57;;;;;;;21.27;65.58;101698.00;5073991;28;20200;-72
2022/07/31 08:35:03;;;;;;;7.97;6.00;;;;;;;21.20;63.98;101698.97;5053664;28;20271;-71
2022/07/31 08:37:29;;;;;;;8.23;5.47;;;;;;;21.54;64.42;101695.09;5073681;28;20884;-71
2022/07/31 08:39:55;;;;;;;8.60;5.37;;;;;;;21.65;65.05;101701.03;5057091;28;20259;-71
2022/07/31 08:42:21;;;;;;;9.63;5.20;;;;;;;21.58;64.10;101698.50;5073940;28;20194;-71
2022/07/31 08:44:46;;;;;;;8.10;6.03;;;;;;;21.63;63.56;101692.38;5073779;28;20203;-73
2022/07/31 08:47:16;;;;;;;6.77;3.97;;;;;;;21.54;62.36;101697.69;5073464;28;20799;-72
2022/07/31 08:49:47;;;;;;;4.27;3.50;;;;;;;21.87;62.44;101692.09;5091619;28;20180;-71
2022/07/31 08:52:18;;;;;;;5.67;3.43;;;;;;;21.91;59.43;101685.06;5073443;28;20211;-71
2022/07/31 08:54:56;;;;;;;5.60;4.00;;;;;;;22.02;61.08;101686.66;5073815;28;20184;-69
2022/07/31 08:57:22;;;;;;;6.30;4.27;;;;;;;22.21;59.74;101689.88;5073321;28;20191;-71
2022/07/31 08:59:51;;;;;;;5.47;3.53;;;;;;;22.35;59.42;101690.53;5073525;28;20184;-71
2022/07/31 09:02:17;;;;;;;5.70;3.87;;;;;;;22.17;59.54;101685.59;5073453;28;20210;-71
2022/07/31 09:05:19;;;;;;;6.90;4.17;;;;;;;21.91;60.39;101688.56;4981611;28;20195;-71
2022/07/31 09:07:44;;;;;;;6.07;3.70;;;;;;;22.06;61.02;101690.13;5057131;28;20563;-71
2022/07/31 09:10:23;;;;;;;4.90;3.47;;;;;;;22.42;59.90;101677.38;5073314;28;20184;-70
2022/07/31 09:12:50;;;;;;;4.27;3.53;;;;;;;22.42;59.62;101679.97;5073502;28;20658;-72
2022/07/31 09:15:26;;;;;;;4.43;3.60;;;;;;;23.03;58.76;101678.97;5091237;28;20217;-71
2022/07/31 09:17:52;;;;;;;6.60;3.43;;;;;;;23.19;56.83;101672.59;5072680;28;20226;-72
2022/07/31 09:20:21;;;;;;;4.37;2.60;;;;;;;23.18;55.55;101665.63;5072929;28;20212;-71
2022/07/31 09:22:51;;;;;;;4.20;3.00;;;;;;;23.28;55.14;101669.81;5072962;28;20188;-71
2022/07/31 09:25:19;;;;;;;4.57;2.47;;;;;;;23.60;55.04;101665.66;5072761;28;20181;-71
2022/07/31 09:27:47;;;;;;;4.80;3.00;;;;;;;23.39;54.35;101671.31;5072435;28;20222;-71
2022/07/31 09:30:13;;;;;;;4.00;2.87;;;;;;;23.84;53.76;101659.06;5072744;28;20567;-72
2022/07/31 09:33:17;;;;;;;6.03;3.07;;;;;;;23.82;54.80;101661.72;5090960;28;20215;-71
2022/07/31 09:36:01;;;;;;;4.50;3.35;;;;;;;23.85;53.16;101647.69;5091188;28;20598;-71
2022/07/31 09:38:39;;;;;;;5.40;2.90;;;;;;;24.17;53.15;101640.84;5054756;28;20625;-72
2022/07/31 09:41:24;;;;;;;5.78;2.53;;;;;;;24.37;51.93;101643.88;5090964;28;20273;-72
2022/07/31 09:44:19;;;;;;;4.50;2.42;;;;;;;24.08;50.92;101643.69;5076707;28;20204;-72
2022/07/31 09:46:46;;;;;;;5.15;2.83;;;;;;;24.33;50.48;101637.00;5090477;28;20191;-72
2022/07/31 09:49:13;;;;;;;2.53;2.33;;;;;;;24.54;51.25;101638.22;5072381;28;20217;-72
2022/07/31 09:51:45;;;;;;;3.83;2.40;;;;;;;24.50;50.60;101641.81;5056051;28;20830;-71
2022/07/31 09:54:25;;;;;;;4.68;2.67;;;;;;;24.05;50.47;101641.16;5072579;28;20261;-71
2022/07/31 09:56:53;;;;;;;3.00;2.10;;;;;;;24.24;51.26;101638.97;5090815;28;20184;-72
2022/07/31 09:59:20;;;;;;;5.00;2.63;;;;;;;24.63;52.24;101631.00;5072351;28;20176;-72
2022/07/31 10:01:47;;;;;;;4.70;2.65;;;;;;;24.44;49.07;101629.72;5070638;28;20260;-71
2022/07/31 10:04:18;;;;;;;3.22;2.40;;;;;;;24.82;47.30;101621.75;5105835;28;20274;-72
2022/07/31 10:06:49;;;;;;;6.45;2.25;;;;;;;25.16;46.80;101619.97;5071921;28;20176;-71
2022/07/31 10:09:18;;;;;;;4.07;2.00;;;;;;;25.56;46.99;101615.31;5090462;28;20199;-72
2022/07/31 10:12:17;;;;;;;3.30;2.20;;;;;;;25.80;47.62;101617.22;5034204;28;20210;-72
2022/07/31 10:14:45;;;;;;;4.90;2.30;;;;;;;26.19;47.14;101609.84;5072054;28;20258;-72
2022/07/31 10:17:14;;;;;;;6.05;2.17;;;;;;;26.64;45.88;101613.63;5054664;28;20214;-72
2022/07/31 10:19:50;;;;;;;3.72;2.22;;;;;;;26.84;44.07;101604.13;5088768;28;20191;-71
2022/07/31 10:22:18;;;;;;;3.92;2.20;;;;;;;27.35;45.93;101599.63;5069746;28;20209;-72
2022/07/31 10:24:50;;;;;;;3.38;2.20;;;;;;;28.04;44.66;101599.56;5084430;28;20658;-71
2022/07/31 10:27:18;;;;;;;3.85;1.73;;;;;;;28.01;40.23;101599.72;5071619;28;20219;-72
2022/07/31 10:29:46;;;;;;;3.55;2.00;;;;;;;27.41;41.99;101596.81;5071711;28;20203;-72
2022/07/31 10:32:12;;;;;;;3.35;1.85;;;;;;;28.14;41.56;101590.34;5055110;28;20260;-72
2022/07/31 10:34:55;;;;;;;4.55;1.83;;;;;;;28.13;40.73;101588.66;5071693;28;20800;-72
2022/07/31 10:37:55;;;;;;;2.85;1.77;;;;;;;28.52;41.02;101579.13;5051459;28;20177;-71
2022/07/31 10:40:44;;;;;;;4.00;2.42;;;;;;;28.77;39.77;101576.25;5069550;28;20643;-72
2022/07/31 10:43:27;;;;;;;6.15;2.20;;;;;;;28.32;40.18;101576.41;5060561;28;20181;-71
2022/07/31 10:46:13;;;;;;;4.00;1.95;;;;;;;27.96;39.83;101572.66;5077700;28;20692;-70
2022/07/31 10:48:52;;;;;;;3.90;2.22;;;;;;;28.27;40.61;101564.38;5071442;28;20500;-72
2022/07/31 10:51:48;;;;;;;2.90;2.10;;;;;;;27.87;40.38;101559.88;5046841;28;20304;-72
2022/07/31 10:54:45;;;;;;;2.83;2.13;;;;;;;28.20;39.49;101560.28;5069292;28;20631;-72
2022/07/31 10:57:33;;;;;;;3.97;2.00;;;;;;;28.37;39.30;101545.44;5054034;28;20188;-73
2022/07/31 11:00:26;;;;;;;4.93;2.03;;;;;;;29.30;40.11;101551.84;5045966;28;20295;-73
2022/07/31 11:03:20;;;;;;;3.28;2.05;;;;;;;28.84;40.44;101554.84;5084246;28;20199;-73
2022/07/31 11:06:20;;;;;;;3.85;2.20;;;;;;;27.95;41.63;101557.78;5076454;28;20193;-72
2022/07/31 11:08:57;;;;;;;3.53;1.88;;;;;;;28.56;40.01;101551.69;5071200;28;20235;-73
2022/07/31 11:11:42;;;;;;;3.60;2.22;;;;;;;28.93;39.41;101545.66;5072687;28;20230;-70
2022/07/31 11:14:32;;;;;;;2.90;1.75;;;;;;;29.31;39.68;101539.50;5094038;28;20199;-73
2022/07/31 11:17:32;;;;;;;3.10;2.15;;;;;;;29.64;39.06;101530.00;5084834;28;20227;-72
2022/07/31 11:20:19;;;;;;;3.92;1.98;;;;;;;28.70;38.92;101530.00;5073183;28;20558;-73
2022/07/31 11:23:04;;;;;;;2.60;1.95;;;;;;;29.41;38.87;101523.16;5073382;28;20793;-73
2022/07/31 11:25:33;;;;;;;4.28;1.83;;;;;;;29.82;38.62;101518.56;5055179;28;20181;-73
2022/07/31 11:28:23;;;;;;;4.93;2.00;;;;;;;30.30;37.56;101515.28;5072780;28;20224;-72
2022/07/31 11:31:05;;;;;;;2.97;2.00;;;;;;;29.73;37.95;101506.66;5072832;28;20514;-73
2022/07/31 11:33:32;;;;;;;4.35;1.92;;;;;;;30.37;37.22;101498.16;5072935;28;20189;-73
2022/07/31 11:36:12;;;;;;;4.30;2.13;;;;;;;29.81;36.58;101506.28;5072980;28;20189;-73
2022/07/31 11:38:41;;;;;;;3.55;1.85;;;;;;;28.99;38.32;101511.97;5060155;28;20184;-72